sensor_id;sensor_type;location;lat;lon;timestamp;pressure;altitude;pressure_sealevel;temperature;humidity
42727;BME280;28372;56.832;60.658;2022-09-09T00:01:58;97515.75;;;11.77;66.65
42727;BME280;28372;56.832;60.658;2022-09-09T00:04:33;97512.59;;;11.57;65.12
42727;BME280;28372;56.832;60.658;2022-09-09T00:09:47;97517.25;;;11.63;68.93
42727;BME280;28372;56.832;60.658;2022-09-09T00:12:32;97513.78;;;11.63;67.47
42727;BME280;28372;56.832;60.658;2022-09-09T00:15:07;97515.69;;;11.55;68.97
42727;BME280;28372;56.832;60.658;2022-09-09T00:17:43;97523.44;;;11.53;69.01
42727;BME280;28372;56.832;60.658;2022-09-09T00:23:10;97519.94;;;11.60;71.33
42727;BME280;28372;56.832;60.658;2022-09-09T00:28:41;97513.00;;;11.55;68.39
42727;BME280;28372;56.832;60.658;2022-09-09T00:31:15;97514.16;;;11.51;67.71
42727;BME280;28372;56.832;60.658;2022-09-09T00:33:46;97515.31;;;11.49;67.31
42727;BME280;28372;56.832;60.658;2022-09-09T00:36:18;97513.00;;;11.55;67.83
42727;BME280;28372;56.832;60.658;2022-09-09T00:38:52;97513.75;;;11.48;66.99
42727;BME280;28372;56.832;60.658;2022-09-09T00:41:47;97512.59;;;11.49;66.59
42727;BME280;28372;56.832;60.658;2022-09-09T00:48:01;97510.69;;;11.61;67.94
42727;BME280;28372;56.832;60.658;2022-09-09T00:58:27;97513.34;;;11.43;66.04
42727;BME280;28372;56.832;60.658;2022-09-09T01:01:03;97519.16;;;11.45;67.96
42727;BME280;28372;56.832;60.658;2022-09-09T01:06:36;97522.63;;;11.45;67.25
42727;BME280;28372;56.832;60.658;2022-09-09T01:16:46;97516.44;;;11.48;68.48
42727;BME280;28372;56.832;60.658;2022-09-09T01:19:27;97520.75;;;11.60;70.69
42727;BME280;28372;56.832;60.658;2022-09-09T01:27:55;97519.59;;;11.65;66.11
42727;BME280;28372;56.832;60.658;2022-09-09T01:30:25;97520.00;;;11.67;66.01
42727;BME280;28372;56.832;60.658;2022-09-09T01:32:57;97523.47;;;11.68;66.20
42727;BME280;28372;56.832;60.658;2022-09-09T01:38:08;97522.31;;;11.69;65.57
42727;BME280;28372;56.832;60.658;2022-09-09T01:40:36;97521.91;;;11.66;66.73
42727;BME280;28372;56.832;60.658;2022-09-09T01:43:04;97520.00;;;11.67;65.97
42727;BME280;28372;56.832;60.658;2022-09-09T01:45:32;97520.00;;;11.67;66.65
42727;BME280;28372;56.832;60.658;2022-09-09T01:48:00;97521.13;;;11.66;66.49
42727;BME280;28372;56.832;60.658;2022-09-09T01:50:45;97512.22;;;11.62;65.38
42727;BME280;28372;56.832;60.658;2022-09-09T01:53:14;97528.09;;;11.71;65.82
42727;BME280;28372;56.832;60.658;2022-09-09T01:56:02;97530.03;;;11.81;68.03
42727;BME280;28372;56.832;60.658;2022-09-09T02:07:29;97533.97;;;12.12;65.97
42727;BME280;28372;56.832;60.658;2022-09-09T02:13:12;97539.00;;;12.03;66.93
42727;BME280;28372;56.832;60.658;2022-09-09T02:19:13;97539.78;;;12.00;65.71
42727;BME280;28372;56.832;60.658;2022-09-09T02:21:59;97542.47;;;11.93;64.71
42727;BME280;28372;56.832;60.658;2022-09-09T02:24:30;97543.63;;;11.99;63.74
42727;BME280;28372;56.832;60.658;2022-09-09T02:27:19;97538.22;;;11.99;64.29
42727;BME280;28372;56.832;60.658;2022-09-09T02:29:49;97546.34;;;11.99;63.81
42727;BME280;28372;56.832;60.658;2022-09-09T02:32:32;97539.78;;;12.07;64.78
42727;BME280;28372;56.832;60.658;2022-09-09T02:35:09;97546.38;;;12.13;65.67
42727;BME280;28372;56.832;60.658;2022-09-09T02:37:41;97554.88;;;12.08;65.70
42727;BME280;28372;56.832;60.658;2022-09-09T02:40:11;97543.28;;;12.15;64.22
42727;BME280;28372;56.832;60.658;2022-09-09T02:42:45;97551.38;;;12.19;63.90
42727;BME280;28372;56.832;60.658;2022-09-09T02:45:16;97547.16;;;12.18;64.01
42727;BME280;28372;56.832;60.658;2022-09-09T02:56:17;97540.94;;;12.35;65.67
42727;BME280;28372;56.832;60.658;2022-09-09T02:58:48;97536.69;;;12.23;65.14
42727;BME280;28372;56.832;60.658;2022-09-09T03:01:17;97533.56;;;12.28;65.19
42727;BME280;28372;56.832;60.658;2022-09-09T03:03:45;97543.63;;;12.35;65.22
42727;BME280;28372;56.832;60.658;2022-09-09T03:06:16;97546.34;;;12.42;64.24
42727;BME280;28372;56.832;60.658;2022-09-09T03:08:49;97551.75;;;12.42;64.56
42727;BME280;28372;56.832;60.658;2022-09-09T03:11:22;97541.28;;;12.48;64.26
42727;BME280;28372;56.832;60.658;2022-09-09T03:13:50;97545.56;;;12.49;63.93
42727;BME280;28372;56.832;60.658;2022-09-09T03:16:19;97548.63;;;12.51;63.47
42727;BME280;28372;56.832;60.658;2022-09-09T03:18:51;97549.81;;;12.57;63.32
42727;BME280;28372;56.832;60.658;2022-09-09T03:21:19;97544.00;;;12.59;63.72
42727;BME280;28372;56.832;60.658;2022-09-09T03:23:48;97549.03;;;12.64;62.35
42727;BME280;28372;56.832;60.658;2022-09-09T03:26:15;97558.31;;;12.70;61.76
42727;BME280;28372;56.832;60.658;2022-09-09T03:28:45;97557.13;;;12.75;61.67
42727;BME280;28372;56.832;60.658;2022-09-09T03:31:17;97559.06;;;12.78;62.00
42727;BME280;28372;56.832;60.658;2022-09-09T03:33:46;97556.75;;;12.80;62.88
42727;BME280;28372;56.832;60.658;2022-09-09T03:36:16;97557.91;;;12.79;63.11
42727;BME280;28372;56.832;60.658;2022-09-09T03:38:44;97555.97;;;12.76;63.98
42727;BME280;28372;56.832;60.658;2022-09-09T03:41:12;97552.88;;;12.77;63.33
42727;BME280;28372;56.832;60.658;2022-09-09T03:43:39;97561.78;;;12.81;63.77
42727;BME280;28372;56.832;60.658;2022-09-09T03:46:08;97560.97;;;12.88;63.28
42727;BME280;28372;56.832;60.658;2022-09-09T03:48:38;97557.88;;;12.93;63.08
42727;BME280;28372;56.832;60.658;2022-09-09T03:51:05;97559.38;;;13.01;63.01
42727;BME280;28372;56.832;60.658;2022-09-09T03:53:34;97560.94;;;13.06;62.18
42727;BME280;28372;56.832;60.658;2022-09-09T03:56:05;97565.97;;;13.08;62.42
42727;BME280;28372;56.832;60.658;2022-09-09T03:58:34;97565.19;;;13.00;62.45
42727;BME280;28372;56.832;60.658;2022-09-09T04:01:08;97568.59;;;13.33;62.63
42727;BME280;28372;56.832;60.658;2022-09-09T04:03:38;97565.13;;;13.18;61.57
42727;BME280;28372;56.832;60.658;2022-09-09T04:06:07;97563.22;;;13.15;61.73
42727;BME280;28372;56.832;60.658;2022-09-09T04:08:36;97568.66;;;13.18;62.02
42727;BME280;28372;56.832;60.658;2022-09-09T04:11:06;97568.25;;;13.20;62.25
42727;BME280;28372;56.832;60.658;2022-09-09T04:13:36;97569.75;;;13.28;62.11
42727;BME280;28372;56.832;60.658;2022-09-09T04:16:11;97574.81;;;13.30;61.12
42727;BME280;28372;56.832;60.658;2022-09-09T04:18:39;97557.75;;;13.26;60.88
42727;BME280;28372;56.832;60.658;2022-09-09T04:21:08;97570.13;;;13.38;61.36
42727;BME280;28372;56.832;60.658;2022-09-09T04:23:37;97572.09;;;13.37;59.64
42727;BME280;28372;56.832;60.658;2022-09-09T04:26:05;97574.78;;;13.41;59.56
42727;BME280;28372;56.832;60.658;2022-09-09T04:28:35;97588.31;;;13.51;59.02
42727;BME280;28372;56.832;60.658;2022-09-09T04:31:10;97584.06;;;13.47;59.58
42727;BME280;28372;56.832;60.658;2022-09-09T04:33:43;97571.25;;;13.47;58.80
42727;BME280;28372;56.832;60.658;2022-09-09T04:36:10;97578.59;;;13.54;59.24
42727;BME280;28372;56.832;60.658;2022-09-09T04:38:38;97573.56;;;13.52;58.93
42727;BME280;28372;56.832;60.658;2022-09-09T04:41:06;97587.47;;;13.62;59.52
42727;BME280;28372;56.832;60.658;2022-09-09T04:43:37;97577.00;;;13.64;59.84
42727;BME280;28372;56.832;60.658;2022-09-09T04:46:07;97580.84;;;13.70;59.57
42727;BME280;28372;56.832;60.658;2022-09-09T04:48:34;97580.81;;;13.74;58.97
42727;BME280;28372;56.832;60.658;2022-09-09T04:51:06;97587.75;;;13.82;58.20
42727;BME280;28372;56.832;60.658;2022-09-09T04:53:34;97585.47;;;13.77;57.90
42727;BME280;28372;56.832;60.658;2022-09-09T04:56:03;97584.69;;;13.76;58.04
42727;BME280;28372;56.832;60.658;2022-09-09T04:58:35;97592.06;;;13.76;58.51
42727;BME280;28372;56.832;60.658;2022-09-09T05:01:17;97597.44;;;13.90;59.25
42727;BME280;28372;56.832;60.658;2022-09-09T05:03:46;97589.28;;;13.83;58.26
42727;BME280;28372;56.832;60.658;2022-09-09T05:06:19;97595.44;;;13.94;58.45
42727;BME280;28372;56.832;60.658;2022-09-09T05:08:50;97598.94;;;13.95;58.00
42727;BME280;28372;56.832;60.658;2022-09-09T05:11:25;97600.44;;;14.03;58.32
42727;BME280;28372;56.832;60.658;2022-09-09T05:13:58;97600.00;;;14.08;58.52
42727;BME280;28372;56.832;60.658;2022-09-09T05:16:28;97595.69;;;14.14;57.46
42727;BME280;28372;56.832;60.658;2022-09-09T05:18:56;97596.03;;;14.20;56.79
42727;BME280;28372;56.832;60.658;2022-09-09T05:21:24;97599.13;;;14.22;56.57
42727;BME280;28372;56.832;60.658;2022-09-09T05:23:54;97589.41;;;14.25;56.63
42727;BME280;28372;56.832;60.658;2022-09-09T05:26:23;97596.72;;;14.31;56.05
42727;BME280;28372;56.832;60.658;2022-09-09T05:28:52;97594.34;;;14.37;56.27
42727;BME280;28372;56.832;60.658;2022-09-09T05:31:20;97600.50;;;14.45;55.43
42727;BME280;28372;56.832;60.658;2022-09-09T05:33:51;97598.09;;;14.54;55.52
42727;BME280;28372;56.832;60.658;2022-09-09T05:36:20;97600.75;;;14.65;55.88
42727;BME280;28372;56.832;60.658;2022-09-09T05:38:53;97585.97;;;15.04;56.44
42727;BME280;28372;56.832;60.658;2022-09-09T05:41:21;97589.47;;;15.39;55.54
42727;BME280;28372;56.832;60.658;2022-09-09T05:43:53;97592.63;;;15.65;53.79
42727;BME280;28372;56.832;60.658;2022-09-09T05:46:24;97589.72;;;15.79;52.55
42727;BME280;28372;56.832;60.658;2022-09-09T05:48:54;97593.19;;;15.83;50.76
42727;BME280;28372;56.832;60.658;2022-09-09T05:51:28;97587.69;;;15.87;50.43
42727;BME280;28372;56.832;60.658;2022-09-09T05:54:01;97593.84;;;15.91;49.83
42727;BME280;28372;56.832;60.658;2022-09-09T05:56:32;97583.38;;;15.89;49.53
42727;BME280;28372;56.832;60.658;2022-09-09T05:59:00;97591.56;;;15.89;49.52
42727;BME280;28372;56.832;60.658;2022-09-09T06:01:31;97588.44;;;15.87;49.64
42727;BME280;28372;56.832;60.658;2022-09-09T06:04:01;97588.88;;;15.86;48.85
42727;BME280;28372;56.832;60.658;2022-09-09T06:06:36;97594.63;;;15.91;49.07
42727;BME280;28372;56.832;60.658;2022-09-09T06:09:09;97582.53;;;15.92;49.14
42727;BME280;28372;56.832;60.658;2022-09-09T06:11:40;97589.03;;;16.02;48.38
42727;BME280;28372;56.832;60.658;2022-09-09T06:14:09;97578.03;;;16.06;48.22
42727;BME280;28372;56.832;60.658;2022-09-09T06:16:38;97580.69;;;16.13;47.40
42727;BME280;28372;56.832;60.658;2022-09-09T06:19:12;97571.25;;;16.18;48.04
42727;BME280;28372;56.832;60.658;2022-09-09T06:21:41;97573.03;;;16.28;47.65
42727;BME280;28372;56.832;60.658;2022-09-09T06:24:10;97582.94;;;16.42;47.64
42727;BME280;28372;56.832;60.658;2022-09-09T06:26:41;97579.19;;;16.56;47.59
42727;BME280;28372;56.832;60.658;2022-09-09T06:29:12;97574.19;;;16.74;46.52
42727;BME280;28372;56.832;60.658;2022-09-09T06:31:41;97573.53;;;16.90;47.92
42727;BME280;28372;56.832;60.658;2022-09-09T06:34:14;97571.66;;;17.27;48.82
42727;BME280;28372;56.832;60.658;2022-09-09T06:36:46;97571.41;;;17.95;47.37
42727;BME280;28372;56.832;60.658;2022-09-09T06:39:14;97573.63;;;18.00;44.95
42727;BME280;28372;56.832;60.658;2022-09-09T06:41:44;97573.78;;;18.09;43.86
42727;BME280;28372;56.832;60.658;2022-09-09T06:44:30;97580.63;;;18.18;43.06
42727;BME280;28372;56.832;60.658;2022-09-09T06:47:03;97582.53;;;18.21;45.49
42727;BME280;28372;56.832;60.658;2022-09-09T06:49:32;97577.56;;;18.15;41.90
42727;BME280;28372;56.832;60.658;2022-09-09T06:52:01;97582.34;;;18.11;41.46
42727;BME280;28372;56.832;60.658;2022-09-09T06:54:29;97577.06;;;18.04;41.43
42727;BME280;28372;56.832;60.658;2022-09-09T06:56:58;97569.72;;;18.01;41.94
42727;BME280;28372;56.832;60.658;2022-09-09T06:59:47;97570.22;;;17.96;41.86
42727;BME280;28372;56.832;60.658;2022-09-09T07:02:15;97569.84;;;17.94;42.06
42727;BME280;28372;56.832;60.658;2022-09-09T07:04:43;97582.34;;;17.95;41.93
42727;BME280;28372;56.832;60.658;2022-09-09T07:07:11;97571.75;;;17.97;41.76
42727;BME280;28372;56.832;60.658;2022-09-09T07:09:41;97572.09;;;17.99;42.05
42727;BME280;28372;56.832;60.658;2022-09-09T07:12:09;97566.88;;;18.05;41.72
42727;BME280;28372;56.832;60.658;2022-09-09T07:14:42;97565.69;;;18.06;41.29
42727;BME280;28372;56.832;60.658;2022-09-09T07:17:09;97568.22;;;17.96;41.07
42727;BME280;28372;56.832;60.658;2022-09-09T07:19:39;97565.63;;;17.89;41.16
42727;BME280;28372;56.832;60.658;2022-09-09T07:22:06;97562.38;;;17.78;41.40
42727;BME280;28372;56.832;60.658;2022-09-09T07:24:34;97573.47;;;17.71;42.18
42727;BME280;28372;56.832;60.658;2022-09-09T07:27:02;97573.63;;;17.63;42.73
42727;BME280;28372;56.832;60.658;2022-09-09T07:29:30;97579.31;;;17.53;44.19
42727;BME280;28372;56.832;60.658;2022-09-09T07:31:58;97567.84;;;17.41;43.31
42727;BME280;28372;56.832;60.658;2022-09-09T07:34:31;97570.78;;;17.30;43.06
42727;BME280;28372;56.832;60.658;2022-09-09T07:36:59;97578.09;;;17.17;42.81
42727;BME280;28372;56.832;60.658;2022-09-09T07:39:27;97580.28;;;17.06;43.30
42727;BME280;28372;56.832;60.658;2022-09-09T07:41:55;97584.38;;;16.94;43.61
42727;BME280;28372;56.832;60.658;2022-09-09T07:44:24;97585.25;;;16.87;44.24
42727;BME280;28372;56.832;60.658;2022-09-09T07:47:15;97586.06;;;16.64;44.82
42727;BME280;28372;56.832;60.658;2022-09-09T07:49:46;97578.06;;;16.53;46.05
42727;BME280;28372;56.832;60.658;2022-09-09T07:52:19;97579.03;;;16.87;46.15
42727;BME280;28372;56.832;60.658;2022-09-09T07:54:52;97580.13;;;16.69;46.32
42727;BME280;28372;56.832;60.658;2022-09-09T07:57:20;97576.91;;;16.74;46.83
42727;BME280;28372;56.832;60.658;2022-09-09T08:00:08;97580.22;;;16.86;46.76
42727;BME280;28372;56.832;60.658;2022-09-09T08:02:43;97577.47;;;16.89;46.17
42727;BME280;28372;56.832;60.658;2022-09-09T08:05:12;97579.72;;;16.94;45.79
42727;BME280;28372;56.832;60.658;2022-09-09T08:07:40;97586.28;;;16.97;46.34
42727;BME280;28372;56.832;60.658;2022-09-09T08:10:07;97569.69;;;17.08;46.12
42727;BME280;28372;56.832;60.658;2022-09-09T08:12:37;97569.97;;;17.13;45.76
42727;BME280;28372;56.832;60.658;2022-09-09T08:15:11;97569.41;;;17.22;46.30
42727;BME280;28372;56.832;60.658;2022-09-09T08:17:39;97562.38;;;17.41;45.40
42727;BME280;28372;56.832;60.658;2022-09-09T08:20:08;97561.75;;;17.54;44.54
42727;BME280;28372;56.832;60.658;2022-09-09T08:22:35;97566.63;;;17.62;43.82
42727;BME280;28372;56.832;60.658;2022-09-09T08:25:05;97568.69;;;17.75;43.55
42727;BME280;28372;56.832;60.658;2022-09-09T08:27:36;97555.78;;;17.75;42.68
42727;BME280;28372;56.832;60.658;2022-09-09T08:30:04;97564.50;;;17.87;42.80
42727;BME280;28372;56.832;60.658;2022-09-09T08:32:32;97570.28;;;17.92;42.58
42727;BME280;28372;56.832;60.658;2022-09-09T08:35:00;97563.19;;;17.95;42.71
42727;BME280;28372;56.832;60.658;2022-09-09T08:37:29;97562.69;;;18.00;42.70
42727;BME280;28372;56.832;60.658;2022-09-09T08:39:57;97563.00;;;18.02;42.34
42727;BME280;28372;56.832;60.658;2022-09-09T08:42:39;97566.53;;;18.03;43.01
42727;BME280;28372;56.832;60.658;2022-09-09T08:45:25;97571.22;;;18.02;42.94
42727;BME280;28372;56.832;60.658;2022-09-09T08:48:39;97574.66;;;18.06;43.42
42727;BME280;28372;56.832;60.658;2022-09-09T08:51:12;97574.56;;;17.93;43.11
42727;BME280;28372;56.832;60.658;2022-09-09T08:53:44;97582.00;;;17.93;43.61
42727;BME280;28372;56.832;60.658;2022-09-09T08:56:19;97568.03;;;17.87;43.36
42727;BME280;28372;56.832;60.658;2022-09-09T08:58:54;97586.25;;;17.94;42.29
42727;BME280;28372;56.832;60.658;2022-09-09T09:02:15;97588.00;;;18.04;43.07
42727;BME280;28372;56.832;60.658;2022-09-09T09:05:00;97574.81;;;17.99;42.83
42727;BME280;28372;56.832;60.658;2022-09-09T09:07:43;97585.06;;;17.95;42.39
42727;BME280;28372;56.832;60.658;2022-09-09T09:13:20;97584.78;;;17.89;43.46
42727;BME280;28372;56.832;60.658;2022-09-09T09:16:20;97584.94;;;17.82;43.60
42727;BME280;28372;56.832;60.658;2022-09-09T09:18:45;97584.75;;;17.73;43.10
42727;BME280;28372;56.832;60.658;2022-09-09T09:21:17;97586.28;;;17.74;43.84
42727;BME280;28372;56.832;60.658;2022-09-09T09:23:59;97589.56;;;17.85;43.99
42727;BME280;28372;56.832;60.658;2022-09-09T09:26:33;97591.28;;;17.79;43.17
42727;BME280;28372;56.832;60.658;2022-09-09T09:29:11;97595.19;;;17.78;44.00
42727;BME280;28372;56.832;60.658;2022-09-09T09:31:51;97592.72;;;17.84;43.93
42727;BME280;28372;56.832;60.658;2022-09-09T09:34:19;97583.66;;;17.70;43.42
42727;BME280;28372;56.832;60.658;2022-09-09T09:36:57;97590.16;;;17.76;42.50
42727;BME280;28372;56.832;60.658;2022-09-09T09:39:31;97591.22;;;17.62;42.03
42727;BME280;28372;56.832;60.658;2022-09-09T09:42:23;97586.94;;;17.61;41.63
42727;BME280;28372;56.832;60.658;2022-09-09T09:44:55;97587.09;;;17.54;41.58
42727;BME280;28372;56.832;60.658;2022-09-09T09:47:23;97589.84;;;17.54;42.08
42727;BME280;28372;56.832;60.658;2022-09-09T09:50:18;97599.59;;;17.55;42.43
42727;BME280;28372;56.832;60.658;2022-09-09T09:52:56;97593.22;;;17.62;42.81
42727;BME280;28372;56.832;60.658;2022-09-09T09:55:28;97597.28;;;17.54;42.54
42727;BME280;28372;56.832;60.658;2022-09-09T09:58:06;97592.16;;;17.56;42.77
42727;BME280;28372;56.832;60.658;2022-09-09T10:00:50;97592.16;;;17.56;43.29
42727;BME280;28372;56.832;60.658;2022-09-09T10:03:28;97585.38;;;17.44;43.65
42727;BME280;28372;56.832;60.658;2022-09-09T10:05:58;97585.53;;;17.37;42.91
42727;BME280;28372;56.832;60.658;2022-09-09T10:08:26;97582.09;;;17.33;43.07
42727;BME280;28372;56.832;60.658;2022-09-09T10:13:57;97591.59;;;17.44;43.42
42727;BME280;28372;56.832;60.658;2022-09-09T10:16:34;97579.63;;;17.38;42.14
42727;BME280;28372;56.832;60.658;2022-09-09T10:19:16;97582.06;;;17.53;42.78
42727;BME280;28372;56.832;60.658;2022-09-09T10:22:26;97576.09;;;17.58;42.84
42727;BME280;28372;56.832;60.658;2022-09-09T10:30:55;97579.63;;;17.38;43.97
42727;BME280;28372;56.832;60.658;2022-09-09T10:36:30;97573.75;;;17.20;43.44
42727;BME280;28372;56.832;60.658;2022-09-09T10:39:18;97579.78;;;17.31;43.58
42727;BME280;28372;56.832;60.658;2022-09-09T10:56:21;97584.69;;;16.76;40.39
42727;BME280;28372;56.832;60.658;2022-09-09T10:58:59;97590.94;;;16.76;41.33
42727;BME280;28372;56.832;60.658;2022-09-09T11:01:37;97583.34;;;16.64;40.75
42727;BME280;28372;56.832;60.658;2022-09-09T11:04:16;97583.91;;;16.75;41.25
42727;BME280;28372;56.832;60.658;2022-09-09T11:06:49;97578.09;;;16.73;40.91
42727;BME280;28372;56.832;60.658;2022-09-09T11:09:23;97587.84;;;16.74;41.30
42727;BME280;28372;56.832;60.658;2022-09-09T11:11:57;97585.47;;;16.76;41.36
42727;BME280;28372;56.832;60.658;2022-09-09T11:14:51;97584.69;;;16.76;41.36
42727;BME280;28372;56.832;60.658;2022-09-09T11:17:20;97582.38;;;16.74;40.91
42727;BME280;28372;56.832;60.658;2022-09-09T11:19:48;97571.88;;;16.73;41.29
42727;BME280;28372;56.832;60.658;2022-09-09T11:22:33;97578.00;;;16.81;41.24
42727;BME280;28372;56.832;60.658;2022-09-09T11:38:55;97586.84;;;16.65;40.82
42727;BME280;28372;56.832;60.658;2022-09-09T11:41:34;97583.22;;;16.71;41.28
42727;BME280;28372;56.832;60.658;2022-09-09T11:44:12;97583.22;;;16.48;42.17
42727;BME280;28372;56.832;60.658;2022-09-09T11:46:41;97576.88;;;16.31;41.38
42727;BME280;28372;56.832;60.658;2022-09-09T11:52:39;97584.31;;;16.54;41.89
42727;BME280;28372;56.832;60.658;2022-09-09T11:55:30;97585.78;;;16.58;42.18
42727;BME280;28372;56.832;60.658;2022-09-09T12:00:40;97582.50;;;16.43;42.46
42727;BME280;28372;56.832;60.658;2022-09-09T12:08:50;97590.13;;;16.56;46.97
42727;BME280;28372;56.832;60.658;2022-09-09T12:11:29;97581.78;;;16.63;47.79
42727;BME280;28372;56.832;60.658;2022-09-09T12:14:01;97581.09;;;16.59;47.76
42727;BME280;28372;56.832;60.658;2022-09-09T12:16:35;97582.22;;;16.61;46.02
42727;BME280;28372;56.832;60.658;2022-09-09T12:21:44;97585.69;;;16.62;45.25
42727;BME280;28372;56.832;60.658;2022-09-09T12:24:46;97563.81;;;16.66;44.99
42727;BME280;28372;56.832;60.658;2022-09-09T12:27:42;97578.16;;;16.70;44.49
42727;BME280;28372;56.832;60.658;2022-09-09T12:30:15;97574.28;;;16.47;45.15
42727;BME280;28372;56.832;60.658;2022-09-09T12:32:43;97563.56;;;16.33;44.25
42727;BME280;28372;56.832;60.658;2022-09-09T12:35:23;97574.75;;;16.42;43.24
42727;BME280;28372;56.832;60.658;2022-09-09T12:38:00;97571.78;;;16.33;43.54
42727;BME280;28372;56.832;60.658;2022-09-09T12:40:29;97568.50;;;16.18;42.42
42727;BME280;28372;56.832;60.658;2022-09-09T12:42:58;97560.06;;;16.08;42.13
42727;BME280;28372;56.832;60.658;2022-09-09T12:45:30;97572.94;;;16.08;42.23
42727;BME280;28372;56.832;60.658;2022-09-09T12:48:09;97567.81;;;16.14;42.54
42727;BME280;28372;56.832;60.658;2022-09-09T12:50:50;97568.09;;;15.92;41.88
42727;BME280;28372;56.832;60.658;2022-09-09T12:53:23;97564.50;;;15.99;43.15
42727;BME280;28372;56.832;60.658;2022-09-09T12:56:03;97569.22;;;15.98;43.05
42727;BME280;28372;56.832;60.658;2022-09-09T12:58:32;97563.59;;;15.82;42.66
42727;BME280;28372;56.832;60.658;2022-09-09T13:01:01;97568.09;;;15.65;43.87
42727;BME280;28372;56.832;60.658;2022-09-09T13:03:41;97570.97;;;15.54;44.09
42727;BME280;28372;56.832;60.658;2022-09-09T13:06:12;97569.88;;;15.48;44.11
42727;BME280;28372;56.832;60.658;2022-09-09T13:08:41;97564.22;;;15.35;43.98
42727;BME280;28372;56.832;60.658;2022-09-09T13:13:56;97572.16;;;15.22;45.63
42727;BME280;28372;56.832;60.658;2022-09-09T13:16:30;97579.91;;;15.23;46.57
42727;BME280;28372;56.832;60.658;2022-09-09T13:19:14;97579.81;;;15.31;47.34
42727;BME280;28372;56.832;60.658;2022-09-09T13:21:43;97576.22;;;15.06;46.07
42727;BME280;28372;56.832;60.658;2022-09-09T13:24:40;97577.53;;;15.25;47.21
42727;BME280;28372;56.832;60.658;2022-09-09T13:27:29;97577.66;;;15.15;48.21
42727;BME280;28372;56.832;60.658;2022-09-09T13:29:57;97566.31;;;14.85;47.26
42727;BME280;28372;56.832;60.658;2022-09-09T13:32:28;97568.28;;;14.85;47.49
42727;BME280;28372;56.832;60.658;2022-09-09T13:34:57;97578.72;;;14.90;47.83
42727;BME280;28372;56.832;60.658;2022-09-09T13:37:36;97571.63;;;15.00;48.43
42727;BME280;28372;56.832;60.658;2022-09-09T13:40:05;97573.72;;;14.85;46.68
42727;BME280;28372;56.832;60.658;2022-09-09T13:42:39;97574.84;;;14.91;47.48
42727;BME280;28372;56.832;60.658;2022-09-09T13:45:20;97578.31;;;14.92;47.07
42727;BME280;28372;56.832;60.658;2022-09-09T13:47:49;97581.22;;;14.73;45.83
42727;BME280;28372;56.832;60.658;2022-09-09T13:50:25;97585.91;;;14.73;46.15
42727;BME280;28372;56.832;60.658;2022-09-09T13:52:55;97581.69;;;14.61;45.76
42727;BME280;28372;56.832;60.658;2022-09-09T13:55:26;97582.88;;;14.60;45.87
42727;BME280;28372;56.832;60.658;2022-09-09T13:57:58;97574.38;;;14.54;45.31
42727;BME280;28372;56.832;60.658;2022-09-09T14:00:32;97578.63;;;14.55;46.14
42727;BME280;28372;56.832;60.658;2022-09-09T14:03:01;97583.06;;;14.38;45.97
42727;BME280;28372;56.832;60.658;2022-09-09T14:05:33;97588.50;;;14.42;47.09
42727;BME280;28372;56.832;60.658;2022-09-09T14:08:03;97583.47;;;14.37;47.15
42727;BME280;28372;56.832;60.658;2022-09-09T14:10:31;97581.66;;;14.19;46.51
42727;BME280;28372;56.832;60.658;2022-09-09T14:12:59;97580.94;;;14.15;46.40
42727;BME280;28372;56.832;60.658;2022-09-09T14:15:26;97586.41;;;14.08;47.02
42727;BME280;28372;56.832;60.658;2022-09-09T14:17:54;97591.50;;;14.02;47.22
42727;BME280;28372;56.832;60.658;2022-09-09T14:20:22;97586.88;;;13.99;47.64
42727;BME280;28372;56.832;60.658;2022-09-09T14:22:49;97583.84;;;13.90;47.77
42727;BME280;28372;56.832;60.658;2022-09-09T14:25:16;97588.47;;;13.90;48.21
42727;BME280;28372;56.832;60.658;2022-09-09T14:27:44;97586.56;;;13.83;48.08
42727;BME280;28372;56.832;60.658;2022-09-09T14:30:13;97576.56;;;13.69;48.78
42727;BME280;28372;56.832;60.658;2022-09-09T14:32:40;97591.69;;;13.74;48.42
42727;BME280;28372;56.832;60.658;2022-09-09T14:35:08;97589.78;;;13.63;49.16
42727;BME280;28372;56.832;60.658;2022-09-09T14:37:35;97585.94;;;13.61;48.52
42727;BME280;28372;56.832;60.658;2022-09-09T14:40:03;97591.38;;;13.53;49.19
42727;BME280;28372;56.832;60.658;2022-09-09T14:42:31;97586.78;;;13.47;49.06
42727;BME280;28372;56.832;60.658;2022-09-09T14:44:58;97597.69;;;13.40;48.95
42727;BME280;28372;56.832;60.658;2022-09-09T14:47:26;97589.16;;;13.34;49.34
42727;BME280;28372;56.832;60.658;2022-09-09T14:49:53;97592.22;;;13.32;49.38
42727;BME280;28372;56.832;60.658;2022-09-09T14:52:21;97596.94;;;13.25;49.32
42727;BME280;28372;56.832;60.658;2022-09-09T14:54:48;97585.31;;;13.17;49.38
42727;BME280;28372;56.832;60.658;2022-09-09T14:57:16;97606.28;;;13.16;49.84
42727;BME280;28372;56.832;60.658;2022-09-09T14:59:44;97604.34;;;13.10;50.33
42727;BME280;28372;56.832;60.658;2022-09-09T15:02:11;97610.56;;;13.07;50.29
42727;BME280;28372;56.832;60.658;2022-09-09T15:04:41;97604.75;;;13.01;50.38
42727;BME280;28372;56.832;60.658;2022-09-09T15:07:08;97602.84;;;12.91;50.48
42727;BME280;28372;56.832;60.658;2022-09-09T15:09:35;97602.88;;;12.83;50.62
42727;BME280;28372;56.832;60.658;2022-09-09T15:12:04;97605.59;;;12.83;51.31
42727;BME280;28372;56.832;60.658;2022-09-09T15:14:32;97619.53;;;12.82;51.41
42727;BME280;28372;56.832;60.658;2022-09-09T15:16:59;97615.69;;;12.79;51.98
42727;BME280;28372;56.832;60.658;2022-09-09T15:19:28;97611.78;;;12.73;51.78
42727;BME280;28372;56.832;60.658;2022-09-09T15:21:55;97612.19;;;12.72;51.86
42727;BME280;28372;56.832;60.658;2022-09-09T15:24:22;97619.16;;;12.69;52.04